AVA9841 SKBO-SKAR
Flight info
| Callsign | AVA9841 |
|---|---|
| Flight time | 0h 26m |
| Altitude | 18000 |
| Route | ISNOX2S ISNOX ISNOX1J |
| Aircraft | A320/M-SDE3FGHIRWY/LB1 |
Departure
| Time | 2026-05-04 22:07 |
|---|---|
| Airport | El Dorado International Airport (SKBO) |
Arrival
| Time | 2026-05-04 22:33 |
|---|---|
| Airport | El Eden Airport (SKAR) |
| Time | Latitude | Longitude | Altitude | Speed | Heading |
|---|---|---|---|---|---|
| 2026-05-04 21:30 | 4.69763 | -74.14505 | 8373 ft | 0 kts | 37° |
| 2026-05-04 21:53 | 4.69763 | -74.14506 | 8373 ft | 2 kts | 37° |
| 2026-05-04 21:53 | 4.69746 | -74.14519 | 8373 ft | 2 kts | 37° |
| 2026-05-04 21:53 | 4.69730 | -74.14528 | 8374 ft | 3 kts | 1° |
| 2026-05-04 21:54 | 4.69711 | -74.14523 | 8373 ft | 3 kts | 320° |
| 2026-05-04 21:54 | 4.69695 | -74.14507 | 8374 ft | 3 kts | 308° |
| 2026-05-04 21:54 | 4.69694 | -74.14506 | 8374 ft | 3 kts | 307° |
| 2026-05-04 21:54 | 4.69708 | -74.14524 | 8373 ft | 3 kts | 307° |
| 2026-05-04 21:55 | 4.69718 | -74.14537 | 8373 ft | 0 kts | 307° |
| 2026-05-04 21:57 | 4.69733 | -74.14557 | 8371 ft | 7 kts | 307° |
| 2026-05-04 21:57 | 4.69774 | -74.14612 | 8372 ft | 13 kts | 307° |
| 2026-05-04 21:57 | 4.69837 | -74.14696 | 8373 ft | 16 kts | 307° |
| 2026-05-04 21:58 | 4.69903 | -74.14786 | 8372 ft | 16 kts | 305° |
| 2026-05-04 21:58 | 4.69943 | -74.14865 | 8372 ft | 11 kts | 264° |
| 2026-05-04 21:58 | 4.69896 | -74.14915 | 8373 ft | 10 kts | 217° |
| 2026-05-04 21:58 | 4.69861 | -74.14967 | 8373 ft | 9 kts | 267° |
| 2026-05-04 21:59 | 4.69887 | -74.15016 | 8373 ft | 7 kts | 307° |
| 2026-05-04 21:59 | 4.69914 | -74.15052 | 8371 ft | 5 kts | 307° |
| 2026-05-04 21:59 | 4.69933 | -74.15078 | 8373 ft | 4 kts | 307° |
| 2026-05-04 21:59 | 4.69944 | -74.15093 | 8373 ft | 2 kts | 307° |
| 2026-05-04 22:00 | 4.69952 | -74.15104 | 8373 ft | 3 kts | 307° |
| 2026-05-04 22:00 | 4.69969 | -74.15126 | 8373 ft | 5 kts | 308° |
| 2026-05-04 22:00 | 4.69994 | -74.15158 | 8373 ft | 6 kts | 307° |
| 2026-05-04 22:00 | 4.70021 | -74.15194 | 8373 ft | 7 kts | 306° |
| 2026-05-04 22:01 | 4.70056 | -74.15241 | 8373 ft | 11 kts | 307° |
| 2026-05-04 22:01 | 4.70109 | -74.15311 | 8373 ft | 13 kts | 307° |
| 2026-05-04 22:01 | 4.70165 | -74.15385 | 8373 ft | 14 kts | 307° |
| 2026-05-04 22:01 | 4.70224 | -74.15462 | 8373 ft | 14 kts | 307° |
| 2026-05-04 22:02 | 4.70285 | -74.15544 | 8373 ft | 15 kts | 307° |
| 2026-05-04 22:02 | 4.70350 | -74.15630 | 8373 ft | 16 kts | 307° |
| 2026-05-04 22:02 | 4.70417 | -74.15719 | 8373 ft | 16 kts | 307° |
| 2026-05-04 22:02 | 4.70488 | -74.15812 | 8373 ft | 17 kts | 307° |
| 2026-05-04 22:03 | 4.70561 | -74.15908 | 8373 ft | 18 kts | 307° |
| 2026-05-04 22:03 | 4.70637 | -74.16008 | 8373 ft | 18 kts | 307° |
| 2026-05-04 22:03 | 4.70714 | -74.16111 | 8374 ft | 19 kts | 307° |
| 2026-05-04 22:03 | 4.70794 | -74.16217 | 8372 ft | 20 kts | 307° |
| 2026-05-04 22:04 | 4.70878 | -74.16327 | 8372 ft | 20 kts | 307° |
| 2026-05-04 22:04 | 4.70965 | -74.16440 | 8370 ft | 21 kts | 308° |
| 2026-05-04 22:04 | 4.71053 | -74.16557 | 8370 ft | 21 kts | 306° |
| 2026-05-04 22:04 | 4.71140 | -74.16674 | 8372 ft | 21 kts | 307° |
| 2026-05-04 22:05 | 4.71201 | -74.16760 | 8373 ft | 12 kts | 290° |
| 2026-05-04 22:05 | 4.71168 | -74.16820 | 8371 ft | 8 kts | 218° |
| 2026-05-04 22:05 | 4.71151 | -74.16833 | 8373 ft | 0 kts | 217° |
| 2026-05-04 22:06 | 4.71127 | -74.16851 | 8373 ft | 6 kts | 217° |
| 2026-05-04 22:06 | 4.71098 | -74.16872 | 8373 ft | 7 kts | 216° |
| 2026-05-04 22:06 | 4.71048 | -74.16898 | 8373 ft | 7 kts | 169° |
| 2026-05-04 22:06 | 4.71010 | -74.16857 | 8373 ft | 15 kts | 127° |
| 2026-05-04 22:07 | 4.70828 | -74.16613 | 8372 ft | 78 kts | 127° |
| 2026-05-04 22:07 | 4.70368 | -74.16008 | 8374 ft | 138 kts | 127° |
| 2026-05-04 22:07 | 4.69686 | -74.15105 | 8383 ft | 185 kts | 128° |
| 2026-05-04 22:07 | 4.68899 | -74.14094 | 9007 ft | 184 kts | 125° |
| 2026-05-04 22:08 | 4.67913 | -74.13259 | 9547 ft | 193 kts | 161° |
| 2026-05-04 22:08 | 4.66601 | -74.13335 | 9988 ft | 195 kts | 210° |
| 2026-05-04 22:08 | 4.65703 | -74.14317 | 10439 ft | 193 kts | 241° |
| 2026-05-04 22:08 | 4.65021 | -74.15476 | 10869 ft | 193 kts | 237° |
| 2026-05-04 22:09 | 4.64298 | -74.16614 | 11294 ft | 195 kts | 236° |
| 2026-05-04 22:09 | 4.63551 | -74.17761 | 11549 ft | 207 kts | 236° |
| 2026-05-04 22:09 | 4.62725 | -74.19020 | 11692 ft | 226 kts | 236° |
| 2026-05-04 22:09 | 4.61840 | -74.20402 | 11826 ft | 246 kts | 242° |
| 2026-05-04 22:10 | 4.61306 | -74.22099 | 12001 ft | 267 kts | 259° |
| 2026-05-04 22:10 | 4.60940 | -74.24006 | 12227 ft | 290 kts | 259° |
| 2026-05-04 22:10 | 4.60545 | -74.26063 | 12496 ft | 310 kts | 259° |
| 2026-05-04 22:10 | 4.59891 | -74.28142 | 13058 ft | 317 kts | 243° |
| 2026-05-04 22:11 | 4.58891 | -74.30128 | 13702 ft | 320 kts | 242° |
| 2026-05-04 22:11 | 4.57864 | -74.32124 | 14333 ft | 325 kts | 242° |
| 2026-05-04 22:11 | 4.56815 | -74.34146 | 14986 ft | 329 kts | 241° |
| 2026-05-04 22:11 | 4.55955 | -74.36288 | 15611 ft | 335 kts | 258° |
| 2026-05-04 22:12 | 4.55710 | -74.38619 | 16213 ft | 338 kts | 265° |
| 2026-05-04 22:12 | 4.55556 | -74.40977 | 16768 ft | 341 kts | 266° |
| 2026-05-04 22:12 | 4.55408 | -74.43363 | 17291 ft | 345 kts | 266° |
| 2026-05-04 22:12 | 4.55264 | -74.45772 | 17680 ft | 352 kts | 266° |
| 2026-05-04 22:13 | 4.55111 | -74.48285 | 17754 ft | 371 kts | 266° |
| 2026-05-04 22:13 | 4.54948 | -74.50949 | 17739 ft | 394 kts | 266° |
| 2026-05-04 22:13 | 4.54772 | -74.53763 | 17710 ft | 413 kts | 266° |
| 2026-05-04 22:13 | 4.54587 | -74.56695 | 17691 ft | 430 kts | 266° |
| 2026-05-04 22:14 | 4.54392 | -74.59712 | 17655 ft | 436 kts | 266° |
| 2026-05-04 22:14 | 4.54191 | -74.62751 | 17647 ft | 438 kts | 266° |
| 2026-05-04 22:14 | 4.53988 | -74.65799 | 17622 ft | 439 kts | 266° |
| 2026-05-04 22:14 | 4.53789 | -74.68849 | 17612 ft | 439 kts | 266° |
| 2026-05-04 22:15 | 4.53586 | -74.71896 | 17596 ft | 438 kts | 265° |
| 2026-05-04 22:15 | 4.53368 | -74.74942 | 17580 ft | 438 kts | 265° |
| 2026-05-04 22:15 | 4.53139 | -74.77986 | 17569 ft | 438 kts | 265° |
| 2026-05-04 22:15 | 4.52905 | -74.81028 | 17570 ft | 438 kts | 265° |
| 2026-05-04 22:16 | 4.52667 | -74.84067 | 17575 ft | 437 kts | 265° |
| 2026-05-04 22:16 | 4.52431 | -74.87104 | 17577 ft | 437 kts | 265° |
| 2026-05-04 22:16 | 4.52198 | -74.90143 | 17580 ft | 437 kts | 265° |
| 2026-05-04 22:16 | 4.51970 | -74.93173 | 17584 ft | 437 kts | 265° |
| 2026-05-04 22:17 | 4.51744 | -74.96217 | 17586 ft | 437 kts | 265° |
| 2026-05-04 22:17 | 4.51522 | -74.99250 | 17591 ft | 437 kts | 265° |
| 2026-05-04 22:17 | 4.51300 | -75.02285 | 17597 ft | 437 kts | 265° |
| 2026-05-04 22:17 | 4.51078 | -75.05318 | 17606 ft | 437 kts | 265° |
| 2026-05-04 22:18 | 4.50853 | -75.08352 | 17614 ft | 437 kts | 265° |
| 2026-05-04 22:18 | 4.50624 | -75.11391 | 17623 ft | 437 kts | 265° |
| 2026-05-04 22:18 | 4.50393 | -75.14429 | 17629 ft | 437 kts | 265° |
| 2026-05-04 22:18 | 4.50164 | -75.17464 | 17634 ft | 437 kts | 265° |
| 2026-05-04 22:19 | 4.49933 | -75.20503 | 17641 ft | 437 kts | 265° |
| 2026-05-04 22:19 | 4.49704 | -75.23541 | 17642 ft | 438 kts | 265° |
| 2026-05-04 22:19 | 4.49553 | -75.25556 | 17647 ft | 438 kts | 265° |
| 2026-05-04 22:19 | 4.49324 | -75.28597 | 17652 ft | 437 kts | 265° |
| 2026-05-04 22:20 | 4.49096 | -75.31622 | 17655 ft | 430 kts | 265° |
| 2026-05-04 22:20 | 4.48876 | -75.34556 | 17568 ft | 415 kts | 265° |
| 2026-05-04 22:20 | 4.48666 | -75.37387 | 17443 ft | 401 kts | 265° |
| 2026-05-04 22:20 | 4.48461 | -75.40125 | 17312 ft | 387 kts | 266° |
| 2026-05-04 22:21 | 4.48262 | -75.42774 | 17186 ft | 375 kts | 265° |
| 2026-05-04 22:21 | 4.48070 | -75.45322 | 17027 ft | 356 kts | 265° |
| 2026-05-04 22:21 | 4.47887 | -75.47726 | 16867 ft | 335 kts | 265° |
| 2026-05-04 22:21 | 4.47714 | -75.49993 | 16624 ft | 320 kts | 265° |
| 2026-05-04 22:22 | 4.47549 | -75.52190 | 16131 ft | 314 kts | 265° |
| 2026-05-04 22:22 | 4.47386 | -75.54351 | 15624 ft | 309 kts | 265° |
| 2026-05-04 22:22 | 4.47424 | -75.56487 | 15089 ft | 305 kts | 278° |
| 2026-05-04 22:22 | 4.47769 | -75.58570 | 14534 ft | 302 kts | 279° |
| 2026-05-04 22:23 | 4.48112 | -75.60586 | 14361 ft | 283 kts | 280° |
| 2026-05-04 22:23 | 4.48432 | -75.62477 | 14233 ft | 268 kts | 279° |
| 2026-05-04 22:23 | 4.48812 | -75.64245 | 14025 ft | 255 kts | 294° |
| 2026-05-04 22:23 | 4.49832 | -75.65650 | 13591 ft | 248 kts | 325° |
| 2026-05-04 22:24 | 4.51353 | -75.66350 | 13263 ft | 239 kts | 353° |
| 2026-05-04 22:24 | 4.52988 | -75.66266 | 12916 ft | 235 kts | 16° |
| 2026-05-04 22:24 | 4.54581 | -75.65867 | 12583 ft | 236 kts | 15° |
| 2026-05-04 22:24 | 4.56171 | -75.65474 | 12276 ft | 235 kts | 15° |
| 2026-05-04 22:25 | 4.57759 | -75.65084 | 11963 ft | 234 kts | 15° |
| 2026-05-04 22:25 | 4.59341 | -75.64696 | 11659 ft | 234 kts | 15° |
| 2026-05-04 22:25 | 4.60917 | -75.64310 | 11336 ft | 233 kts | 15° |
| 2026-05-04 22:25 | 4.62492 | -75.63923 | 11033 ft | 233 kts | 14° |
| 2026-05-04 22:26 | 4.64067 | -75.63536 | 10731 ft | 233 kts | 14° |
| 2026-05-04 22:26 | 4.65636 | -75.63149 | 10411 ft | 232 kts | 14° |
| 2026-05-04 22:26 | 4.67229 | -75.62914 | 10094 ft | 232 kts | 353° |
| 2026-05-04 22:26 | 4.68712 | -75.63468 | 9772 ft | 229 kts | 321° |
| 2026-05-04 22:27 | 4.69296 | -75.64025 | 9596 ft | 228 kts | 305° |
| 2026-05-04 22:27 | 4.69876 | -75.65167 | 9332 ft | 225 kts | 281° |
| 2026-05-04 22:27 | 4.69886 | -75.66702 | 8987 ft | 220 kts | 252° |
| 2026-05-04 22:27 | 4.69333 | -75.68104 | 8657 ft | 220 kts | 246° |
| 2026-05-04 22:28 | 4.68745 | -75.69518 | 8410 ft | 213 kts | 243° |
| 2026-05-04 22:28 | 4.67926 | -75.70691 | 8242 ft | 201 kts | 223° |
| 2026-05-04 22:28 | 4.66788 | -75.71472 | 8037 ft | 198 kts | 203° |
| 2026-05-04 22:28 | 4.65491 | -75.71847 | 7809 ft | 196 kts | 193° |
| 2026-05-04 22:29 | 4.64164 | -75.72158 | 7557 ft | 195 kts | 193° |
| 2026-05-04 22:29 | 4.62843 | -75.72469 | 7301 ft | 194 kts | 193° |
| 2026-05-04 22:29 | 4.61540 | -75.72775 | 7044 ft | 191 kts | 193° |
| 2026-05-04 22:29 | 4.60257 | -75.73078 | 6796 ft | 189 kts | 193° |
| 2026-05-04 22:30 | 4.58983 | -75.73377 | 6543 ft | 187 kts | 193° |
| 2026-05-04 22:30 | 4.57720 | -75.73675 | 6289 ft | 185 kts | 193° |
| 2026-05-04 22:30 | 4.56532 | -75.73954 | 6072 ft | 166 kts | 193° |
| 2026-05-04 22:30 | 4.55460 | -75.74207 | 5852 ft | 153 kts | 193° |
| 2026-05-04 22:31 | 4.54444 | -75.74447 | 5649 ft | 148 kts | 193° |
| 2026-05-04 22:31 | 4.53445 | -75.74682 | 5452 ft | 149 kts | 193° |
| 2026-05-04 22:31 | 4.52432 | -75.74921 | 5257 ft | 150 kts | 193° |
| 2026-05-04 22:31 | 4.51418 | -75.75159 | 5055 ft | 150 kts | 193° |
| 2026-05-04 22:32 | 4.50406 | -75.75397 | 4860 ft | 149 kts | 193° |
| 2026-05-04 22:32 | 4.49399 | -75.75634 | 4661 ft | 149 kts | 193° |
| 2026-05-04 22:32 | 4.48393 | -75.75871 | 4465 ft | 148 kts | 193° |
| 2026-05-04 22:32 | 4.47392 | -75.76107 | 4263 ft | 148 kts | 193° |
| 2026-05-04 22:33 | 4.46390 | -75.76346 | 4059 ft | 148 kts | 193° |
| 2026-05-04 22:33 | 4.45439 | -75.76570 | 3985 ft | 120 kts | 193° |
| 2026-05-04 22:33 | 4.44906 | -75.76697 | 3980 ft | 52 kts | 193° |
| 2026-05-04 22:33 | 4.44592 | -75.76775 | 3978 ft | 41 kts | 194° |
| 2026-05-04 22:34 | 4.44369 | -75.76820 | 3976 ft | 18 kts | 176° |
| 2026-05-04 22:34 | 4.44327 | -75.76834 | 3975 ft | 1 kts | 307° |
| 2026-05-04 22:34 | 4.44351 | -75.76832 | 3976 ft | 8 kts | 6° |
| 2026-05-04 22:34 | 4.44403 | -75.76821 | 3977 ft | 9 kts | 13° |
| 2026-05-04 22:35 | 4.44486 | -75.76801 | 3977 ft | 16 kts | 13° |
| 2026-05-04 22:35 | 4.44618 | -75.76770 | 3978 ft | 23 kts | 13° |
| 2026-05-04 22:35 | 4.44772 | -75.76731 | 3980 ft | 22 kts | 14° |
| 2026-05-04 22:35 | 4.44910 | -75.76697 | 3980 ft | 19 kts | 14° |
| 2026-05-04 22:36 | 4.45028 | -75.76669 | 3982 ft | 16 kts | 12° |
| 2026-05-04 22:36 | 4.45121 | -75.76647 | 3984 ft | 11 kts | 14° |
| 2026-05-04 22:36 | 4.45175 | -75.76637 | 3984 ft | 5 kts | 355° |
| 2026-05-04 22:36 | 4.45191 | -75.76644 | 3983 ft | 4 kts | 333° |
| 2026-05-04 22:37 | 4.45230 | -75.76681 | 3985 ft | 6 kts | 306° |
| 2026-05-04 22:37 | 4.45251 | -75.76699 | 3984 ft | 7 kts | 337° |
| 2026-05-04 22:37 | 4.45304 | -75.76699 | 3984 ft | 3 kts | 315° |
| 2026-05-04 22:37 | 4.45314 | -75.76717 | 3986 ft | 8 kts | 291° |
| 2026-05-04 22:38 | 4.45319 | -75.76738 | 3986 ft | 0 kts | 283° |